sensor_id;sensor_type;location;lat;lon;timestamp;P1;durP1;ratioP1;P2;durP2;ratioP2
29362;SDS011;16349;53.672;10.014;2023-04-01T00:01:19;11.63;;;5.27;;
29362;SDS011;16349;53.672;10.014;2023-04-01T00:03:46;8.20;;;5.17;;
29362;SDS011;16349;53.672;10.014;2023-04-01T00:06:15;7.07;;;5.57;;
29362;SDS011;16349;53.672;10.014;2023-04-01T00:08:43;9.33;;;5.07;;
29362;SDS011;16349;53.672;10.014;2023-04-01T00:11:11;6.10;;;4.53;;
29362;SDS011;16349;53.672;10.014;2023-04-01T00:13:37;7.30;;;5.07;;
29362;SDS011;16349;53.672;10.014;2023-04-01T00:16:04;13.57;;;5.73;;
29362;SDS011;16349;53.672;10.014;2023-04-01T00:18:33;7.37;;;5.20;;
29362;SDS011;16349;53.672;10.014;2023-04-01T00:20:59;7.70;;;5.23;;
29362;SDS011;16349;53.672;10.014;2023-04-01T00:23:28;7.37;;;5.07;;
29362;SDS011;16349;53.672;10.014;2023-04-01T00:25:55;7.17;;;5.00;;
29362;SDS011;16349;53.672;10.014;2023-04-01T00:28:22;8.20;;;5.13;;
29362;SDS011;16349;53.672;10.014;2023-04-01T00:30:49;11.63;;;4.83;;
29362;SDS011;16349;53.672;10.014;2023-04-01T00:33:16;10.20;;;5.53;;
29362;SDS011;16349;53.672;10.014;2023-04-01T00:35:43;6.17;;;5.03;;
29362;SDS011;16349;53.672;10.014;2023-04-01T00:38:11;7.63;;;4.90;;
29362;SDS011;16349;53.672;10.014;2023-04-01T00:40:40;7.97;;;5.17;;
29362;SDS011;16349;53.672;10.014;2023-04-01T00:43:10;11.20;;;5.70;;
29362;SDS011;16349;53.672;10.014;2023-04-01T00:45:38;5.30;;;4.80;;
29362;SDS011;16349;53.672;10.014;2023-04-01T00:48:09;10.60;;;5.00;;
29362;SDS011;16349;53.672;10.014;2023-04-01T00:50:37;10.07;;;4.93;;
29362;SDS011;16349;53.672;10.014;2023-04-01T00:53:06;10.27;;;4.43;;
29362;SDS011;16349;53.672;10.014;2023-04-01T00:55:35;8.07;;;4.87;;
29362;SDS011;16349;53.672;10.014;2023-04-01T00:58:07;5.60;;;4.87;;
29362;SDS011;16349;53.672;10.014;2023-04-01T01:00:39;8.83;;;5.17;;
29362;SDS011;16349;53.672;10.014;2023-04-01T01:03:06;5.73;;;4.40;;
29362;SDS011;16349;53.672;10.014;2023-04-01T01:05:38;6.20;;;4.67;;
29362;SDS011;16349;53.672;10.014;2023-04-01T01:08:22;7.03;;;4.80;;
29362;SDS011;16349;53.672;10.014;2023-04-01T01:11:02;7.90;;;4.60;;
29362;SDS011;16349;53.672;10.014;2023-04-01T01:13:33;6.13;;;5.20;;
29362;SDS011;16349;53.672;10.014;2023-04-01T01:16:08;7.17;;;5.47;;
29362;SDS011;16349;53.672;10.014;2023-04-01T01:18:39;11.97;;;5.53;;
29362;SDS011;16349;53.672;10.014;2023-04-01T01:24:22;9.97;;;5.33;;
29362;SDS011;16349;53.672;10.014;2023-04-01T01:27:07;11.73;;;5.50;;
29362;SDS011;16349;53.672;10.014;2023-04-01T01:32:44;8.87;;;5.10;;
29362;SDS011;16349;53.672;10.014;2023-04-01T01:35:33;8.37;;;5.30;;
29362;SDS011;16349;53.672;10.014;2023-04-01T01:38:11;8.00;;;5.37;;
29362;SDS011;16349;53.672;10.014;2023-04-01T01:40:48;9.60;;;5.37;;
29362;SDS011;16349;53.672;10.014;2023-04-01T01:43:21;7.70;;;5.07;;
29362;SDS011;16349;53.672;10.014;2023-04-01T01:45:50;9.53;;;5.50;;
29362;SDS011;16349;53.672;10.014;2023-04-01T01:48:21;8.77;;;5.40;;
29362;SDS011;16349;53.672;10.014;2023-04-01T01:50:50;8.57;;;5.70;;
29362;SDS011;16349;53.672;10.014;2023-04-01T01:53:19;10.20;;;5.40;;
29362;SDS011;16349;53.672;10.014;2023-04-01T01:55:47;13.27;;;5.37;;
29362;SDS011;16349;53.672;10.014;2023-04-01T01:58:16;7.50;;;5.30;;
29362;SDS011;16349;53.672;10.014;2023-04-01T02:00:48;12.20;;;5.63;;
29362;SDS011;16349;53.672;10.014;2023-04-01T02:03:19;9.53;;;5.50;;
29362;SDS011;16349;53.672;10.014;2023-04-01T02:05:48;12.43;;;5.70;;
29362;SDS011;16349;53.672;10.014;2023-04-01T02:08:20;10.33;;;5.80;;
29362;SDS011;16349;53.672;10.014;2023-04-01T02:10:56;11.07;;;6.37;;
29362;SDS011;16349;53.672;10.014;2023-04-01T02:13:32;5.83;;;5.07;;
29362;SDS011;16349;53.672;10.014;2023-04-01T02:16:05;9.30;;;5.47;;
29362;SDS011;16349;53.672;10.014;2023-04-01T02:18:36;6.97;;;5.37;;
29362;SDS011;16349;53.672;10.014;2023-04-01T02:21:06;8.53;;;5.67;;
29362;SDS011;16349;53.672;10.014;2023-04-01T02:23:35;9.20;;;5.50;;
29362;SDS011;16349;53.672;10.014;2023-04-01T02:26:02;8.93;;;5.73;;
29362;SDS011;16349;53.672;10.014;2023-04-01T02:28:31;14.47;;;5.43;;
29362;SDS011;16349;53.672;10.014;2023-04-01T02:30:59;9.20;;;5.33;;
29362;SDS011;16349;53.672;10.014;2023-04-01T02:33:28;13.63;;;5.90;;
29362;SDS011;16349;53.672;10.014;2023-04-01T02:35:57;13.17;;;5.17;;
29362;SDS011;16349;53.672;10.014;2023-04-01T02:38:26;8.97;;;5.30;;
29362;SDS011;16349;53.672;10.014;2023-04-01T02:40:56;8.83;;;5.63;;
29362;SDS011;16349;53.672;10.014;2023-04-01T02:43:24;7.90;;;5.33;;
29362;SDS011;16349;53.672;10.014;2023-04-01T02:45:52;8.43;;;5.03;;
29362;SDS011;16349;53.672;10.014;2023-04-01T02:48:19;6.53;;;5.03;;
29362;SDS011;16349;53.672;10.014;2023-04-01T02:50:46;7.30;;;5.47;;
29362;SDS011;16349;53.672;10.014;2023-04-01T02:53:13;9.27;;;5.20;;
29362;SDS011;16349;53.672;10.014;2023-04-01T02:55:41;6.70;;;5.33;;
29362;SDS011;16349;53.672;10.014;2023-04-01T02:58:10;8.83;;;5.33;;
29362;SDS011;16349;53.672;10.014;2023-04-01T03:00:37;15.67;;;5.97;;
29362;SDS011;16349;53.672;10.014;2023-04-01T03:03:04;8.70;;;5.53;;
29362;SDS011;16349;53.672;10.014;2023-04-01T03:05:32;10.70;;;5.93;;
29362;SDS011;16349;53.672;10.014;2023-04-01T03:07:58;6.13;;;5.47;;
29362;SDS011;16349;53.672;10.014;2023-04-01T03:10:25;6.10;;;5.50;;
29362;SDS011;16349;53.672;10.014;2023-04-01T03:12:54;9.30;;;5.80;;
29362;SDS011;16349;53.672;10.014;2023-04-01T03:15:21;5.70;;;4.97;;
29362;SDS011;16349;53.672;10.014;2023-04-01T03:17:48;9.27;;;5.30;;
29362;SDS011;16349;53.672;10.014;2023-04-01T03:20:15;7.40;;;5.97;;
29362;SDS011;16349;53.672;10.014;2023-04-01T03:22:42;9.60;;;6.03;;
29362;SDS011;16349;53.672;10.014;2023-04-01T03:25:09;8.17;;;6.03;;
29362;SDS011;16349;53.672;10.014;2023-04-01T03:27:37;14.40;;;6.33;;
29362;SDS011;16349;53.672;10.014;2023-04-01T03:30:06;9.10;;;7.03;;
29362;SDS011;16349;53.672;10.014;2023-04-01T03:32:42;9.90;;;6.40;;
29362;SDS011;16349;53.672;10.014;2023-04-01T03:35:10;10.03;;;6.47;;
29362;SDS011;16349;53.672;10.014;2023-04-01T03:37:37;7.83;;;6.60;;
29362;SDS011;16349;53.672;10.014;2023-04-01T03:40:04;8.30;;;6.20;;
29362;SDS011;16349;53.672;10.014;2023-04-01T03:42:32;12.40;;;7.00;;
29362;SDS011;16349;53.672;10.014;2023-04-01T03:44:59;8.80;;;6.73;;
29362;SDS011;16349;53.672;10.014;2023-04-01T03:47:29;12.73;;;6.87;;
29362;SDS011;16349;53.672;10.014;2023-04-01T03:49:57;10.13;;;6.57;;
29362;SDS011;16349;53.672;10.014;2023-04-01T03:52:25;10.33;;;7.57;;
29362;SDS011;16349;53.672;10.014;2023-04-01T03:54:52;7.13;;;6.13;;
29362;SDS011;16349;53.672;10.014;2023-04-01T03:57:19;10.27;;;7.47;;
29362;SDS011;16349;53.672;10.014;2023-04-01T03:59:46;8.17;;;6.93;;
29362;SDS011;16349;53.672;10.014;2023-04-01T04:02:13;7.23;;;6.17;;
29362;SDS011;16349;53.672;10.014;2023-04-01T04:04:42;7.87;;;6.50;;
29362;SDS011;16349;53.672;10.014;2023-04-01T04:07:10;7.97;;;6.73;;
29362;SDS011;16349;53.672;10.014;2023-04-01T04:09:58;10.03;;;7.00;;
29362;SDS011;16349;53.672;10.014;2023-04-01T04:12:24;10.93;;;6.10;;
29362;SDS011;16349;53.672;10.014;2023-04-01T04:14:52;8.70;;;6.63;;
29362;SDS011;16349;53.672;10.014;2023-04-01T04:17:20;8.43;;;6.33;;
29362;SDS011;16349;53.672;10.014;2023-04-01T04:19:48;9.47;;;5.77;;
29362;SDS011;16349;53.672;10.014;2023-04-01T04:22:15;8.03;;;6.50;;
29362;SDS011;16349;53.672;10.014;2023-04-01T04:24:42;5.00;;;4.20;;
29362;SDS011;16349;53.672;10.014;2023-04-01T04:27:11;4.10;;;3.00;;
29362;SDS011;16349;53.672;10.014;2023-04-01T04:29:51;2.87;;;2.67;;
29362;SDS011;16349;53.672;10.014;2023-04-01T04:32:18;2.20;;;2.00;;
29362;SDS011;16349;53.672;10.014;2023-04-01T04:34:45;2.63;;;1.80;;
29362;SDS011;16349;53.672;10.014;2023-04-01T04:37:13;1.60;;;1.50;;
29362;SDS011;16349;53.672;10.014;2023-04-01T04:39:40;1.73;;;1.50;;
29362;SDS011;16349;53.672;10.014;2023-04-01T04:42:07;3.63;;;1.67;;
29362;SDS011;16349;53.672;10.014;2023-04-01T04:44:34;1.30;;;1.20;;
29362;SDS011;16349;53.672;10.014;2023-04-01T04:47:01;1.40;;;1.30;;
29362;SDS011;16349;53.672;10.014;2023-04-01T04:49:28;2.17;;;1.40;;
29362;SDS011;16349;53.672;10.014;2023-04-01T04:51:56;2.90;;;1.20;;
29362;SDS011;16349;53.672;10.014;2023-04-01T04:54:27;1.40;;;1.30;;
29362;SDS011;16349;53.672;10.014;2023-04-01T04:56:57;1.23;;;1.13;;
29362;SDS011;16349;53.672;10.014;2023-04-01T04:59:26;1.73;;;1.20;;
29362;SDS011;16349;53.672;10.014;2023-04-01T05:02:23;1.57;;;1.10;;
29362;SDS011;16349;53.672;10.014;2023-04-01T05:04:50;1.00;;;1.00;;
29362;SDS011;16349;53.672;10.014;2023-04-01T05:07:17;1.20;;;1.10;;
29362;SDS011;16349;53.672;10.014;2023-04-01T05:09:45;2.40;;;1.03;;
29362;SDS011;16349;53.672;10.014;2023-04-01T05:12:13;0.90;;;0.90;;
29362;SDS011;16349;53.672;10.014;2023-04-01T05:14:54;1.60;;;1.50;;
29362;SDS011;16349;53.672;10.014;2023-04-01T05:17:21;1.07;;;0.97;;
29362;SDS011;16349;53.672;10.014;2023-04-01T05:19:48;1.00;;;1.00;;
29362;SDS011;16349;53.672;10.014;2023-04-01T05:22:15;2.27;;;0.97;;
29362;SDS011;16349;53.672;10.014;2023-04-01T05:24:42;1.43;;;0.80;;
29362;SDS011;16349;53.672;10.014;2023-04-01T05:27:11;1.33;;;1.00;;
29362;SDS011;16349;53.672;10.014;2023-04-01T05:29:39;3.07;;;0.90;;
29362;SDS011;16349;53.672;10.014;2023-04-01T05:32:11;0.50;;;0.50;;
29362;SDS011;16349;53.672;10.014;2023-04-01T05:34:39;0.80;;;0.80;;
29362;SDS011;16349;53.672;10.014;2023-04-01T05:37:06;2.10;;;1.07;;
29362;SDS011;16349;53.672;10.014;2023-04-01T05:39:35;3.90;;;0.97;;
29362;SDS011;16349;53.672;10.014;2023-04-01T05:42:04;1.47;;;0.90;;
29362;SDS011;16349;53.672;10.014;2023-04-01T05:44:33;1.10;;;1.00;;
29362;SDS011;16349;53.672;10.014;2023-04-01T05:47:23;0.70;;;0.60;;
29362;SDS011;16349;53.672;10.014;2023-04-01T05:49:50;1.03;;;0.90;;
29362;SDS011;16349;53.672;10.014;2023-04-01T05:52:17;3.20;;;0.90;;
29362;SDS011;16349;53.672;10.014;2023-04-01T05:54:44;0.80;;;0.80;;
29362;SDS011;16349;53.672;10.014;2023-04-01T05:57:11;1.43;;;0.63;;
29362;SDS011;16349;53.672;10.014;2023-04-01T05:59:39;0.70;;;0.70;;
29362;SDS011;16349;53.672;10.014;2023-04-01T06:02:06;0.80;;;0.60;;
29362;SDS011;16349;53.672;10.014;2023-04-01T06:04:34;0.90;;;0.67;;
29362;SDS011;16349;53.672;10.014;2023-04-01T06:07:05;1.30;;;0.70;;
29362;SDS011;16349;53.672;10.014;2023-04-01T06:09:39;1.57;;;0.70;;
29362;SDS011;16349;53.672;10.014;2023-04-01T06:12:16;0.50;;;0.50;;
29362;SDS011;16349;53.672;10.014;2023-04-01T06:18:08;0.60;;;0.60;;
29362;SDS011;16349;53.672;10.014;2023-04-01T06:20:57;0.93;;;0.60;;
29362;SDS011;16349;53.672;10.014;2023-04-01T06:23:36;0.80;;;0.50;;
29362;SDS011;16349;53.672;10.014;2023-04-01T06:26:29;1.33;;;0.70;;
29362;SDS011;16349;53.672;10.014;2023-04-01T06:29:03;0.77;;;0.70;;
29362;SDS011;16349;53.672;10.014;2023-04-01T06:31:50;0.53;;;0.50;;
29362;SDS011;16349;53.672;10.014;2023-04-01T06:35:11;2.23;;;0.60;;
29362;SDS011;16349;53.672;10.014;2023-04-01T06:41:15;0.47;;;0.47;;
29362;SDS011;16349;53.672;10.014;2023-04-01T06:44:07;0.77;;;0.77;;
29362;SDS011;16349;53.672;10.014;2023-04-01T06:47:07;0.90;;;0.60;;
29362;SDS011;16349;53.672;10.014;2023-04-01T06:50:11;1.33;;;0.57;;
29362;SDS011;16349;53.672;10.014;2023-04-01T06:53:09;0.60;;;0.60;;
29362;SDS011;16349;53.672;10.014;2023-04-01T06:55:59;1.03;;;0.80;;
29362;SDS011;16349;53.672;10.014;2023-04-01T06:58:48;0.60;;;0.57;;
29362;SDS011;16349;53.672;10.014;2023-04-01T07:01:20;1.23;;;0.80;;
29362;SDS011;16349;53.672;10.014;2023-04-01T07:03:53;0.93;;;0.83;;
29362;SDS011;16349;53.672;10.014;2023-04-01T07:06:26;1.63;;;0.77;;
29362;SDS011;16349;53.672;10.014;2023-04-01T07:09:02;1.13;;;0.90;;
29362;SDS011;16349;53.672;10.014;2023-04-01T07:12:11;1.00;;;0.60;;
29362;SDS011;16349;53.672;10.014;2023-04-01T07:15:10;0.70;;;0.60;;
29362;SDS011;16349;53.672;10.014;2023-04-01T07:17:43;0.93;;;0.80;;
29362;SDS011;16349;53.672;10.014;2023-04-01T07:20:16;1.23;;;0.63;;
29362;SDS011;16349;53.672;10.014;2023-04-01T07:22:49;1.17;;;0.83;;
29362;SDS011;16349;53.672;10.014;2023-04-01T07:25:24;1.47;;;0.70;;
29362;SDS011;16349;53.672;10.014;2023-04-01T07:28:15;0.83;;;0.73;;
29362;SDS011;16349;53.672;10.014;2023-04-01T07:30:48;0.60;;;0.60;;
29362;SDS011;16349;53.672;10.014;2023-04-01T07:33:24;2.50;;;0.80;;
29362;SDS011;16349;53.672;10.014;2023-04-01T07:36:03;0.73;;;0.73;;
29362;SDS011;16349;53.672;10.014;2023-04-01T07:38:36;0.60;;;0.60;;
29362;SDS011;16349;53.672;10.014;2023-04-01T07:41:16;1.00;;;0.63;;
29362;SDS011;16349;53.672;10.014;2023-04-01T07:43:56;0.57;;;0.50;;
29362;SDS011;16349;53.672;10.014;2023-04-01T07:46:38;0.90;;;0.80;;
29362;SDS011;16349;53.672;10.014;2023-04-01T07:49:15;1.43;;;0.63;;
29362;SDS011;16349;53.672;10.014;2023-04-01T07:51:49;1.60;;;0.70;;
29362;SDS011;16349;53.672;10.014;2023-04-01T07:54:26;0.60;;;0.60;;
29362;SDS011;16349;53.672;10.014;2023-04-01T07:57:01;0.63;;;0.63;;
29362;SDS011;16349;53.672;10.014;2023-04-01T07:59:51;2.17;;;0.90;;
29362;SDS011;16349;53.672;10.014;2023-04-01T08:02:43;0.70;;;0.70;;
29362;SDS011;16349;53.672;10.014;2023-04-01T08:05:29;1.33;;;0.53;;
29362;SDS011;16349;53.672;10.014;2023-04-01T08:08:05;0.90;;;0.53;;
29362;SDS011;16349;53.672;10.014;2023-04-01T08:11:01;1.23;;;0.60;;
29362;SDS011;16349;53.672;10.014;2023-04-01T08:14:15;0.60;;;0.60;;
29362;SDS011;16349;53.672;10.014;2023-04-01T08:17:08;0.97;;;0.80;;
29362;SDS011;16349;53.672;10.014;2023-04-01T08:19:55;0.63;;;0.63;;
29362;SDS011;16349;53.672;10.014;2023-04-01T08:22:32;2.07;;;0.80;;
29362;SDS011;16349;53.672;10.014;2023-04-01T08:25:13;0.67;;;0.63;;
29362;SDS011;16349;53.672;10.014;2023-04-01T08:27:45;1.90;;;0.80;;
29362;SDS011;16349;53.672;10.014;2023-04-01T08:30:17;0.77;;;0.57;;
29362;SDS011;16349;53.672;10.014;2023-04-01T08:32:46;1.13;;;0.70;;
29362;SDS011;16349;53.672;10.014;2023-04-01T08:35:18;0.63;;;0.57;;
29362;SDS011;16349;53.672;10.014;2023-04-01T08:37:53;1.07;;;0.77;;
29362;SDS011;16349;53.672;10.014;2023-04-01T08:40:35;0.40;;;0.40;;
29362;SDS011;16349;53.672;10.014;2023-04-01T08:43:17;1.07;;;0.60;;
29362;SDS011;16349;53.672;10.014;2023-04-01T08:46:13;0.70;;;0.40;;
29362;SDS011;16349;53.672;10.014;2023-04-01T08:49:06;0.70;;;0.70;;
29362;SDS011;16349;53.672;10.014;2023-04-01T08:51:47;1.77;;;0.80;;
29362;SDS011;16349;53.672;10.014;2023-04-01T08:54:43;0.50;;;0.40;;
29362;SDS011;16349;53.672;10.014;2023-04-01T08:57:40;1.33;;;0.67;;
29362;SDS011;16349;53.672;10.014;2023-04-01T09:00:35;0.50;;;0.50;;
29362;SDS011;16349;53.672;10.014;2023-04-01T09:03:36;1.53;;;0.57;;
29362;SDS011;16349;53.672;10.014;2023-04-01T09:06:12;3.97;;;0.60;;
29362;SDS011;16349;53.672;10.014;2023-04-01T09:08:55;0.50;;;0.50;;
29362;SDS011;16349;53.672;10.014;2023-04-01T09:11:52;0.50;;;0.50;;
29362;SDS011;16349;53.672;10.014;2023-04-01T09:14:47;0.83;;;0.57;;
29362;SDS011;16349;53.672;10.014;2023-04-01T09:17:51;0.40;;;0.40;;
29362;SDS011;16349;53.672;10.014;2023-04-01T09:20:41;0.57;;;0.57;;
29362;SDS011;16349;53.672;10.014;2023-04-01T09:23:28;0.90;;;0.60;;
29362;SDS011;16349;53.672;10.014;2023-04-01T09:26:13;0.40;;;0.40;;
29362;SDS011;16349;53.672;10.014;2023-04-01T09:28:54;0.50;;;0.50;;
29362;SDS011;16349;53.672;10.014;2023-04-01T09:31:42;0.50;;;0.50;;
29362;SDS011;16349;53.672;10.014;2023-04-01T09:34:41;0.50;;;0.50;;
29362;SDS011;16349;53.672;10.014;2023-04-01T09:37:29;0.50;;;0.50;;
29362;SDS011;16349;53.672;10.014;2023-04-01T09:40:13;0.47;;;0.47;;
29362;SDS011;16349;53.672;10.014;2023-04-01T09:42:47;0.50;;;0.47;;
29362;SDS011;16349;53.672;10.014;2023-04-01T09:45:35;1.23;;;0.50;;
29362;SDS011;16349;53.672;10.014;2023-04-01T09:48:14;1.50;;;0.57;;
29362;SDS011;16349;53.672;10.014;2023-04-01T09:50:52;1.77;;;0.67;;
29362;SDS011;16349;53.672;10.014;2023-04-01T09:57:06;0.97;;;0.70;;
29362;SDS011;16349;53.672;10.014;2023-04-01T10:03:29;0.47;;;0.40;;
29362;SDS011;16349;53.672;10.014;2023-04-01T10:09:50;0.40;;;0.40;;
29362;SDS011;16349;53.672;10.014;2023-04-01T10:12:49;0.40;;;0.40;;
29362;SDS011;16349;53.672;10.014;2023-04-01T10:18:50;0.37;;;0.37;;
29362;SDS011;16349;53.672;10.014;2023-04-01T10:21:52;0.20;;;0.20;;
29362;SDS011;16349;53.672;10.014;2023-04-01T10:28:08;1.37;;;0.37;;
29362;SDS011;16349;53.672;10.014;2023-04-01T10:31:24;0.87;;;0.40;;
29362;SDS011;16349;53.672;10.014;2023-04-01T10:37:44;0.50;;;0.50;;
29362;SDS011;16349;53.672;10.014;2023-04-01T10:40:38;1.37;;;0.80;;
29362;SDS011;16349;53.672;10.014;2023-04-01T10:44:18;1.20;;;0.57;;
29362;SDS011;16349;53.672;10.014;2023-04-01T10:50:49;0.57;;;0.57;;
29362;SDS011;16349;53.672;10.014;2023-04-01T10:57:25;0.50;;;0.50;;
29362;SDS011;16349;53.672;10.014;2023-04-01T11:00:43;0.50;;;0.50;;
29362;SDS011;16349;53.672;10.014;2023-04-01T11:04:14;4.63;;;0.70;;
29362;SDS011;16349;53.672;10.014;2023-04-01T11:14:03;1.30;;;1.20;;
29362;SDS011;16349;53.672;10.014;2023-04-01T11:20:33;3.50;;;1.37;;
29362;SDS011;16349;53.672;10.014;2023-04-01T11:23:18;1.67;;;1.57;;
29362;SDS011;16349;53.672;10.014;2023-04-01T11:25:56;1.67;;;1.47;;
29362;SDS011;16349;53.672;10.014;2023-04-01T11:28:55;1.60;;;1.50;;
29362;SDS011;16349;53.672;10.014;2023-04-01T11:31:39;1.73;;;1.63;;
29362;SDS011;16349;53.672;10.014;2023-04-01T11:34:14;2.17;;;1.60;;
29362;SDS011;16349;53.672;10.014;2023-04-01T11:36:57;4.17;;;1.67;;
29362;SDS011;16349;53.672;10.014;2023-04-01T11:39:33;2.93;;;2.03;;
29362;SDS011;16349;53.672;10.014;2023-04-01T11:42:30;2.20;;;1.97;;
29362;SDS011;16349;53.672;10.014;2023-04-01T11:45:26;2.37;;;2.17;;
29362;SDS011;16349;53.672;10.014;2023-04-01T11:48:29;2.27;;;2.17;;
29362;SDS011;16349;53.672;10.014;2023-04-01T11:51:14;2.37;;;2.17;;
29362;SDS011;16349;53.672;10.014;2023-04-01T11:53:52;2.43;;;2.23;;
29362;SDS011;16349;53.672;10.014;2023-04-01T11:56:39;2.40;;;2.07;;
29362;SDS011;16349;53.672;10.014;2023-04-01T11:59:41;2.50;;;2.30;;
29362;SDS011;16349;53.672;10.014;2023-04-01T12:02:25;2.20;;;2.10;;
29362;SDS011;16349;53.672;10.014;2023-04-01T12:05:21;3.70;;;2.67;;
29362;SDS011;16349;53.672;10.014;2023-04-01T12:08:09;2.90;;;2.40;;
29362;SDS011;16349;53.672;10.014;2023-04-01T12:10:48;3.03;;;2.40;;
29362;SDS011;16349;53.672;10.014;2023-04-01T12:13:26;4.40;;;2.43;;
29362;SDS011;16349;53.672;10.014;2023-04-01T12:16:04;2.93;;;2.13;;
29362;SDS011;16349;53.672;10.014;2023-04-01T12:18:45;2.60;;;2.40;;
29362;SDS011;16349;53.672;10.014;2023-04-01T12:21:18;3.90;;;2.70;;
29362;SDS011;16349;53.672;10.014;2023-04-01T12:23:56;2.87;;;2.57;;
29362;SDS011;16349;53.672;10.014;2023-04-01T12:29:37;3.40;;;3.10;;
29362;SDS011;16349;53.672;10.014;2023-04-01T12:32:21;3.47;;;3.17;;
29362;SDS011;16349;53.672;10.014;2023-04-01T12:35:05;3.43;;;2.70;;
29362;SDS011;16349;53.672;10.014;2023-04-01T12:38:14;3.23;;;2.80;;
29362;SDS011;16349;53.672;10.014;2023-04-01T12:41:02;3.63;;;3.20;;
29362;SDS011;16349;53.672;10.014;2023-04-01T12:43:49;2.87;;;2.57;;
29362;SDS011;16349;53.672;10.014;2023-04-01T12:46:35;3.67;;;2.47;;
29362;SDS011;16349;53.672;10.014;2023-04-01T12:49:20;3.60;;;3.30;;
29362;SDS011;16349;53.672;10.014;2023-04-01T12:52:03;3.93;;;2.80;;
29362;SDS011;16349;53.672;10.014;2023-04-01T12:57:47;3.47;;;2.73;;
29362;SDS011;16349;53.672;10.014;2023-04-01T13:00:45;3.73;;;2.10;;
29362;SDS011;16349;53.672;10.014;2023-04-01T13:03:32;3.10;;;2.70;;
29362;SDS011;16349;53.672;10.014;2023-04-01T13:06:36;4.77;;;2.80;;
29362;SDS011;16349;53.672;10.014;2023-04-01T13:09:21;5.43;;;2.77;;
29362;SDS011;16349;53.672;10.014;2023-04-01T13:12:00;3.60;;;2.57;;
29362;SDS011;16349;53.672;10.014;2023-04-01T13:14:52;6.63;;;2.80;;
29362;SDS011;16349;53.672;10.014;2023-04-01T13:17:33;5.57;;;3.07;;
29362;SDS011;16349;53.672;10.014;2023-04-01T13:20:03;3.97;;;2.80;;
29362;SDS011;16349;53.672;10.014;2023-04-01T13:22:45;3.73;;;2.57;;
29362;SDS011;16349;53.672;10.014;2023-04-01T13:25:24;2.97;;;2.70;;
29362;SDS011;16349;53.672;10.014;2023-04-01T13:28:01;4.77;;;2.90;;
29362;SDS011;16349;53.672;10.014;2023-04-01T13:30:39;2.43;;;2.23;;
29362;SDS011;16349;53.672;10.014;2023-04-01T13:33:15;2.57;;;2.30;;
29362;SDS011;16349;53.672;10.014;2023-04-01T13:35:53;6.93;;;2.47;;
29362;SDS011;16349;53.672;10.014;2023-04-01T13:38:36;7.33;;;2.60;;
29362;SDS011;16349;53.672;10.014;2023-04-01T13:41:18;4.43;;;2.53;;
29362;SDS011;16349;53.672;10.014;2023-04-01T13:43:52;3.87;;;2.90;;
29362;SDS011;16349;53.672;10.014;2023-04-01T13:46:33;2.83;;;2.30;;
29362;SDS011;16349;53.672;10.014;2023-04-01T13:49:23;3.53;;;2.53;;
29362;SDS011;16349;53.672;10.014;2023-04-01T13:52:16;5.23;;;2.83;;
29362;SDS011;16349;53.672;10.014;2023-04-01T13:54:56;3.20;;;2.83;;
29362;SDS011;16349;53.672;10.014;2023-04-01T13:57:50;3.07;;;2.77;;
29362;SDS011;16349;53.672;10.014;2023-04-01T14:00:28;6.40;;;3.07;;
29362;SDS011;16349;53.672;10.014;2023-04-01T14:08:58;3.00;;;2.47;;
29362;SDS011;16349;53.672;10.014;2023-04-01T14:11:36;4.27;;;2.50;;
29362;SDS011;16349;53.672;10.014;2023-04-01T14:14:39;5.10;;;2.73;;
29362;SDS011;16349;53.672;10.014;2023-04-01T14:17:19;4.60;;;2.40;;
29362;SDS011;16349;53.672;10.014;2023-04-01T14:20:08;2.83;;;2.43;;
29362;SDS011;16349;53.672;10.014;2023-04-01T14:22:56;5.70;;;2.50;;
29362;SDS011;16349;53.672;10.014;2023-04-01T14:25:41;5.60;;;2.30;;
29362;SDS011;16349;53.672;10.014;2023-04-01T14:28:18;4.10;;;2.70;;
29362;SDS011;16349;53.672;10.014;2023-04-01T14:31:03;4.50;;;3.40;;
29362;SDS011;16349;53.672;10.014;2023-04-01T14:33:43;8.87;;;3.70;;
29362;SDS011;16349;53.672;10.014;2023-04-01T14:39:15;4.20;;;3.00;;
29362;SDS011;16349;53.672;10.014;2023-04-01T14:42:09;3.60;;;3.27;;
29362;SDS011;16349;53.672;10.014;2023-04-01T14:44:51;4.33;;;3.13;;
29362;SDS011;16349;53.672;10.014;2023-04-01T14:47:46;6.30;;;3.30;;
29362;SDS011;16349;53.672;10.014;2023-04-01T14:50:17;4.20;;;2.97;;
29362;SDS011;16349;53.672;10.014;2023-04-01T14:52:49;4.90;;;3.13;;
29362;SDS011;16349;53.672;10.014;2023-04-01T14:55:27;6.37;;;3.00;;
29362;SDS011;16349;53.672;10.014;2023-04-01T14:57:58;4.00;;;2.63;;
29362;SDS011;16349;53.672;10.014;2023-04-01T15:00:38;5.57;;;3.00;;
29362;SDS011;16349;53.672;10.014;2023-04-01T15:03:14;5.33;;;2.80;;
29362;SDS011;16349;53.672;10.014;2023-04-01T15:05:49;3.80;;;2.90;;
29362;SDS011;16349;53.672;10.014;2023-04-01T15:08:22;3.87;;;2.90;;
29362;SDS011;16349;53.672;10.014;2023-04-01T15:16:45;4.07;;;2.80;;
29362;SDS011;16349;53.672;10.014;2023-04-01T15:19:24;4.43;;;3.30;;
29362;SDS011;16349;53.672;10.014;2023-04-01T15:22:29;3.87;;;2.77;;
29362;SDS011;16349;53.672;10.014;2023-04-01T15:25:14;4.17;;;2.80;;
29362;SDS011;16349;53.672;10.014;2023-04-01T15:27:54;9.73;;;3.07;;
29362;SDS011;16349;53.672;10.014;2023-04-01T15:30:27;5.17;;;3.03;;
29362;SDS011;16349;53.672;10.014;2023-04-01T15:33:14;4.53;;;2.57;;
29362;SDS011;16349;53.672;10.014;2023-04-01T15:36:04;5.30;;;2.80;;
29362;SDS011;16349;53.672;10.014;2023-04-01T15:38:43;5.80;;;2.73;;
29362;SDS011;16349;53.672;10.014;2023-04-01T15:41:16;5.77;;;3.17;;
29362;SDS011;16349;53.672;10.014;2023-04-01T15:43:49;6.03;;;3.00;;
29362;SDS011;16349;53.672;10.014;2023-04-01T15:49:11;4.67;;;3.37;;
29362;SDS011;16349;53.672;10.014;2023-04-01T15:51:50;3.10;;;2.80;;
29362;SDS011;16349;53.672;10.014;2023-04-01T15:57:32;5.20;;;2.93;;
29362;SDS011;16349;53.672;10.014;2023-04-01T16:02:56;6.80;;;3.40;;
29362;SDS011;16349;53.672;10.014;2023-04-01T16:05:42;4.97;;;3.77;;
29362;SDS011;16349;53.672;10.014;2023-04-01T16:08:40;8.73;;;3.70;;
29362;SDS011;16349;53.672;10.014;2023-04-01T16:11:21;6.40;;;4.23;;
29362;SDS011;16349;53.672;10.014;2023-04-01T16:13:59;7.37;;;4.13;;
29362;SDS011;16349;53.672;10.014;2023-04-01T16:17:03;4.90;;;3.30;;
29362;SDS011;16349;53.672;10.014;2023-04-01T16:19:48;10.37;;;4.30;;
29362;SDS011;16349;53.672;10.014;2023-04-01T16:22:20;6.77;;;3.77;;
29362;SDS011;16349;53.672;10.014;2023-04-01T16:24:53;8.37;;;5.43;;
29362;SDS011;16349;53.672;10.014;2023-04-01T16:27:29;6.50;;;4.23;;
29362;SDS011;16349;53.672;10.014;2023-04-01T16:30:19;5.03;;;3.63;;
29362;SDS011;16349;53.672;10.014;2023-04-01T16:32:54;7.87;;;3.43;;
29362;SDS011;16349;53.672;10.014;2023-04-01T16:35:29;5.70;;;4.00;;
29362;SDS011;16349;53.672;10.014;2023-04-01T16:38:03;5.60;;;3.73;;
29362;SDS011;16349;53.672;10.014;2023-04-01T16:40:42;8.03;;;4.40;;
29362;SDS011;16349;53.672;10.014;2023-04-01T16:43:38;7.00;;;4.00;;
29362;SDS011;16349;53.672;10.014;2023-04-01T16:49:03;8.27;;;4.00;;
29362;SDS011;16349;53.672;10.014;2023-04-01T16:51:44;6.40;;;3.70;;
29362;SDS011;16349;53.672;10.014;2023-04-01T16:54:17;12.43;;;3.47;;
29362;SDS011;16349;53.672;10.014;2023-04-01T16:57:02;12.00;;;5.03;;
29362;SDS011;16349;53.672;10.014;2023-04-01T16:59:44;7.47;;;3.90;;
29362;SDS011;16349;53.672;10.014;2023-04-01T17:02:20;6.60;;;3.63;;
29362;SDS011;16349;53.672;10.014;2023-04-01T17:04:53;7.73;;;3.67;;